Time;durP1;ratioP1;P1;durP2;ratioP2;P2;SDS_P1;SDS_P2;PMS_P1;PMS_P2;Temp;Humidity;BMP_temperature;BMP_pressure;BME280_temperature;BME280_humidity;BME280_pressure;Samples;Min_cycle;Max_cycle;Signal;HPM_P1;HPM_P2
2021/06/12 00:00:39;;;;;;;;;;;24.80;45.50;;;;;;1628804;72;746;-66
2021/06/12 00:02:41;;;;;;;;;;;24.80;45.60;;;;;;1631260;72;726;-65
2021/06/12 00:04:43;;;;;;;;;;;24.80;45.50;;;;;;1632390;72;834;-65
2021/06/12 00:06:45;;;;;;;;;;;24.80;45.70;;;;;;1624184;73;1140;-66
2021/06/12 00:08:47;;;;;;;;;;;24.80;45.60;;;;;;1626092;73;822;-66
2021/06/12 00:10:49;;;;;;;;;;;24.80;45.70;;;;;;1632652;72;724;-67
2021/06/12 00:12:51;;;;;;;;;;;24.80;45.80;;;;;;1624929;72;775;-69
2021/06/12 00:14:52;;;;;;;;;;;24.80;45.60;;;;;;1625561;73;736;-68
2021/06/12 00:16:54;;;;;;;;;;;24.80;45.60;;;;;;1633479;72;1079;-65
2021/06/12 00:18:56;;;;;;;;;;;24.80;45.80;;;;;;1633365;72;1930;-65
2021/06/12 00:20:58;;;;;;;;;;;24.80;45.90;;;;;;1627553;72;819;-67
2021/06/12 00:23:00;;;;;;;;;;;24.80;45.90;;;;;;1633952;72;765;-66
2021/06/12 00:25:02;;;;;;;;;;;24.80;46.00;;;;;;1618903;72;726;-65
2021/06/12 00:27:04;;;;;;;;;;;24.70;45.90;;;;;;1623467;72;1140;-65
2021/06/12 00:29:06;;;;;;;;;;;24.80;45.90;;;;;;1627143;71;719;-65
2021/06/12 00:31:08;;;;;;;;;;;24.80;45.80;;;;;;1635289;71;740;-67
2021/06/12 00:33:10;;;;;;;;;;;24.80;45.70;;;;;;1628496;72;731;-68
2021/06/12 00:35:12;;;;;;;;;;;24.80;45.80;;;;;;1635749;72;785;-66
2021/06/12 00:37:14;;;;;;;;;;;24.90;45.90;;;;;;1629879;72;1137;-69
2021/06/12 00:39:16;;;;;;;;;;;24.80;45.70;;;;;;1632593;72;1931;-65
2021/06/12 00:41:18;;;;;;;;;;;24.90;45.70;;;;;;1628585;71;796;-65
2021/06/12 00:43:20;;;;;;;;;;;24.80;45.50;;;;;;1620875;72;849;-65
2021/06/12 00:45:23;;;;;;;;;;;24.90;46.10;;;;;;1632179;72;788;-65
2021/06/12 00:47:25;;;;;;;;;;;24.80;45.70;;;;;;1631173;72;1106;-65
2021/06/12 00:49:26;;;;;;;;;;;24.80;45.80;;;;;;1628132;73;812;-65
2021/06/12 00:51:29;;;;;;;;;;;24.80;45.80;;;;;;1631231;72;802;-63
2021/06/12 00:53:42;;;;;;;;;;;24.80;45.80;;;;;;1631754;72;787;-65
2021/06/12 00:55:44;;;;;;;;;;;24.90;46.00;;;;;;1633268;72;813;-65
2021/06/12 00:57:46;;;;;;;;;;;24.80;46.00;;;;;;1628264;73;1202;-66
2021/06/12 00:59:48;;;;;;;;;;;24.80;45.80;;;;;;1631139;73;1935;-66
2021/06/12 01:01:50;;;;;;;;;;;24.80;45.50;;;;;;1621059;72;768;-66
2021/06/12 01:03:52;;;;;;;;;;;24.90;45.90;;;;;;1627825;73;885;-66
2021/06/12 01:05:55;;;;;;;;;;;24.90;45.90;;;;;;1627183;72;1109;-67
2021/06/12 01:07:57;;;;;;;;;;;24.80;45.80;;;;;;1625883;72;765;-66
2021/06/12 01:09:59;;;;;;;;;;;24.90;45.80;;;;;;1628430;72;774;-66
2021/06/12 01:12:05;;;;;;;;;;;24.90;45.80;;;;;;1624887;72;717;-69
2021/06/12 01:14:11;;;;;;;;;;;24.80;45.80;;;;;;1626971;72;779;-67
2021/06/12 01:16:21;;;;;;;;;;;24.80;45.90;;;;;;1632977;72;1141;-68
2021/06/12 01:18:23;;;;;;;;;;;24.90;45.90;;;;;;1636932;71;786;-69
2021/06/12 01:20:43;;;;;;;;;;;24.80;45.80;;;;;;1636143;72;1947;-69
2021/06/12 01:22:50;;;;;;;;;;;24.90;45.80;;;;;;1625119;72;800;-68
2021/06/12 01:24:53;;;;;;;;;;;24.80;45.70;;;;;;1628232;71;895;-67
2021/06/12 01:27:00;;;;;;;;;;;24.80;45.70;;;;;;1624290;72;1078;-66
2021/06/12 01:29:20;;;;;;;;;;;24.80;45.50;;;;;;1622380;72;707;-66
2021/06/12 01:31:22;;;;;;;;;;;24.90;45.50;;;;;;1628349;73;800;-67
2021/06/12 01:33:24;;;;;;;;;;;24.80;45.50;;;;;;1622688;73;777;-67
2021/06/12 01:35:30;;;;;;;;;;;24.80;45.50;;;;;;1622164;73;795;-69
2021/06/12 01:37:33;;;;;;;;;;;24.80;45.50;;;;;;1620292;73;1114;-66
2021/06/12 01:39:35;;;;;;;;;;;24.80;45.50;;;;;;1624362;71;1931;-67
2021/06/12 01:41:37;;;;;;;;;;;24.80;45.50;;;;;;1621589;73;810;-66
2021/06/12 01:43:38;;;;;;;;;;;24.90;45.70;;;;;;1633492;72;796;-66
2021/06/12 01:45:41;;;;;;;;;;;24.80;45.50;;;;;;1628226;71;798;-69
2021/06/12 01:47:43;;;;;;;;;;;24.80;45.50;;;;;;1628263;72;1075;-68
2021/06/12 01:49:45;;;;;;;;;;;24.80;45.60;;;;;;1632140;72;772;-67
2021/06/12 01:51:47;;;;;;;;;;;24.80;45.70;;;;;;1626308;72;787;-70
2021/06/12 01:53:49;;;;;;;;;;;24.90;45.70;;;;;;1626829;72;767;-66
2021/06/12 01:55:51;;;;;;;;;;;24.80;45.50;;;;;;1582239;74;1253;-67
2021/06/12 01:57:53;;;;;;;;;;;24.80;45.50;;;;;;1576138;74;679;-71
2021/06/12 01:59:55;;;;;;;;;;;24.90;45.00;;;;;;1603997;72;1937;-67
2021/06/12 02:01:57;;;;;;;;;;;24.80;45.40;;;;;;1602119;74;761;-66
2021/06/12 02:04:00;;;;;;;;;;;24.80;45.20;;;;;;1575773;74;775;-67
2021/06/12 02:06:02;;;;;;;;;;;24.80;45.30;;;;;;1568614;74;1255;-69
2021/06/12 02:08:04;;;;;;;;;;;24.80;45.30;;;;;;1598699;73;762;-69
2021/06/12 02:10:06;;;;;;;;;;;24.80;45.40;;;;;;1600733;74;768;-66
2021/06/12 02:12:08;;;;;;;;;;;24.70;45.20;;;;;;1603953;73;726;-69
2021/06/12 02:14:10;;;;;;;;;;;24.80;45.20;;;;;;1611638;72;761;-70
2021/06/12 02:16:13;;;;;;;;;;;24.80;45.00;;;;;;1602800;73;1152;-66
2021/06/12 02:18:15;;;;;;;;;;;24.80;45.10;;;;;;1590678;73;756;-67
2021/06/12 02:20:17;;;;;;;;;;;24.90;45.20;;;;;;1602196;73;1919;-67
2021/06/12 02:22:19;;;;;;;;;;;24.80;45.20;;;;;;1603334;73;697;-67
2021/06/12 02:24:21;;;;;;;;;;;24.80;45.00;;;;;;1597636;73;649;-66
2021/06/12 02:26:24;;;;;;;;;;;24.80;44.80;;;;;;1591389;73;1136;-68
2021/06/12 02:28:27;;;;;;;;;;;24.80;44.90;;;;;;1598413;73;786;-65
2021/06/12 02:30:30;;;;;;;;;;;24.80;44.80;;;;;;1597398;73;1961;-67
2021/06/12 02:32:34;;;;;;;;;;;24.80;44.40;;;;;;1601346;73;830;-66
2021/06/12 02:34:37;;;;;;;;;;;24.80;44.20;;;;;;1597026;73;760;-66
2021/06/12 02:36:39;;;;;;;;;;;24.70;44.20;;;;;;1593832;73;1100;-66
2021/06/12 02:38:41;;;;;;;;;;;24.80;44.30;;;;;;1595785;73;764;-66
2021/06/12 02:40:43;;;;;;;;;;;24.80;44.50;;;;;;1615649;72;1924;-66
2021/06/12 02:42:44;;;;;;;;;;;24.70;44.40;;;;;;1626574;73;764;-66
2021/06/12 02:44:46;;;;;;;;;;;24.80;44.60;;;;;;1618509;72;686;-66
2021/06/12 02:46:48;;;;;;;;;;;24.80;45.00;;;;;;1612900;72;1128;-69
2021/06/12 02:48:50;;;;;;;;;;;24.80;44.90;;;;;;1623803;72;765;-69
2021/06/12 02:50:52;;;;;;;;;;;24.70;44.60;;;;;;1626960;72;738;-70
2021/06/12 02:52:54;;;;;;;;;;;24.70;44.40;;;;;;1622458;72;733;-66
2021/06/12 02:54:56;;;;;;;;;;;24.70;44.50;;;;;;1627200;72;758;-64
2021/06/12 02:56:58;;;;;;;;;;;24.80;44.60;;;;;;1627030;72;1180;-66
2021/06/12 02:59:02;;;;;;;;;;;24.80;45.20;;;;;;1615957;73;758;-65
2021/06/12 03:01:04;;;;;;;;;;;24.80;44.90;;;;;;1623096;73;1925;-67
2021/06/12 03:03:06;;;;;;;;;;;24.80;45.10;;;;;;1621770;72;783;-67
2021/06/12 03:05:08;;;;;;;;;;;24.80;45.00;;;;;;1627718;72;751;-66
2021/06/12 03:07:11;;;;;;;;;;;24.80;45.00;;;;;;1618224;73;1137;-64
2021/06/12 03:09:14;;;;;;;;;;;24.80;45.50;;;;;;1625595;72;793;-66
2021/06/12 03:11:16;;;;;;;;;;;24.80;45.20;;;;;;1616010;73;861;-69
2021/06/12 03:13:18;;;;;;;;;;;24.80;45.40;;;;;;1623651;72;730;-69
2021/06/12 03:15:20;;;;;;;;;;;24.80;45.30;;;;;;1620800;72;693;-65
2021/06/12 03:17:22;;;;;;;;;;;24.80;45.80;;;;;;1629596;72;1165;-67
2021/06/12 03:19:24;;;;;;;;;;;24.80;45.60;;;;;;1616068;72;737;-69
2021/06/12 03:21:26;;;;;;;;;;;24.70;45.50;;;;;;1618759;72;1943;-66
2021/06/12 03:23:28;;;;;;;;;;;24.80;45.40;;;;;;1625486;71;812;-66
2021/06/12 03:25:30;;;;;;;;;;;24.70;45.50;;;;;;1625454;72;925;-71
2021/06/12 03:27:32;;;;;;;;;;;24.70;45.50;;;;;;1616239;72;1086;-66
2021/06/12 03:29:35;;;;;;;;;;;24.80;45.70;;;;;;1620353;72;787;-65
2021/06/12 03:31:37;;;;;;;;;;;24.80;45.50;;;;;;1621683;73;811;-65
2021/06/12 03:33:39;;;;;;;;;;;24.80;45.70;;;;;;1625949;71;728;-63
2021/06/12 03:35:40;;;;;;;;;;;24.80;46.00;;;;;;1626352;73;845;-66
2021/06/12 03:37:42;;;;;;;;;;;24.70;45.70;;;;;;1622044;72;1075;-63
2021/06/12 03:39:44;;;;;;;;;;;24.80;45.90;;;;;;1620536;73;783;-65
2021/06/12 03:41:46;;;;;;;;;;;24.70;44.70;;;;;;1628231;72;1939;-64
2021/06/12 03:43:49;;;;;;;;;;;24.70;43.80;;;;;;1618698;72;757;-64
2021/06/12 03:45:54;;;;;;;;;;;24.70;45.00;;;;;;1620511;72;1096;-66
2021/06/12 03:47:55;;;;;;;;;;;24.80;43.90;;;;;;1623247;72;1680;-65
2021/06/12 03:49:57;;;;;;;;;;;24.70;43.40;;;;;;1624603;72;803;-65
2021/06/12 03:51:59;;;;;;;;;;;24.70;43.60;;;;;;1625216;72;758;-64
2021/06/12 03:54:01;;;;;;;;;;;24.80;43.60;;;;;;1627300;72;707;-66
2021/06/12 03:56:03;;;;;;;;;;;24.80;43.70;;;;;;1619505;72;1188;-65
2021/06/12 03:58:05;;;;;;;;;;;24.80;43.70;;;;;;1621920;72;784;-66
2021/06/12 04:00:08;;;;;;;;;;;24.70;43.30;;;;;;1622163;71;1939;-66
2021/06/12 04:02:10;;;;;;;;;;;24.70;43.00;;;;;;1625352;71;793;-66
2021/06/12 04:04:12;;;;;;;;;;;24.70;43.00;;;;;;1622900;72;774;-66
2021/06/12 04:06:14;;;;;;;;;;;24.70;43.10;;;;;;1624631;72;1149;-71
2021/06/12 04:08:16;;;;;;;;;;;24.70;43.10;;;;;;1625401;71;784;-64
2021/06/12 04:10:18;;;;;;;;;;;24.80;43.50;;;;;;1621149;71;788;-65
2021/06/12 04:12:20;;;;;;;;;;;24.80;43.40;;;;;;1624920;72;784;-66
2021/06/12 04:14:22;;;;;;;;;;;24.80;43.40;;;;;;1624864;72;777;-65
2021/06/12 04:16:24;;;;;;;;;;;24.80;43.30;;;;;;1626344;72;1134;-66
2021/06/12 04:18:26;;;;;;;;;;;24.80;43.10;;;;;;1629236;72;774;-68
2021/06/12 04:20:27;;;;;;;;;;;24.60;43.10;;;;;;1621047;72;1929;-64
2021/06/12 04:22:29;;;;;;;;;;;24.80;43.10;;;;;;1627985;72;751;-65
2021/06/12 04:24:31;;;;;;;;;;;24.80;43.40;;;;;;1622125;71;787;-65
2021/06/12 04:26:33;;;;;;;;;;;24.70;43.10;;;;;;1623731;72;1125;-65
2021/06/12 04:28:35;;;;;;;;;;;24.80;43.10;;;;;;1625323;71;784;-63
2021/06/12 04:30:37;;;;;;;;;;;24.80;43.10;;;;;;1625030;72;781;-67
2021/06/12 04:32:39;;;;;;;;;;;24.80;43.10;;;;;;1628880;72;776;-68
2021/06/12 04:34:40;;;;;;;;;;;24.80;43.10;;;;;;1629562;72;804;-64
2021/06/12 04:36:42;;;;;;;;;;;24.80;43.10;;;;;;1626044;72;1137;-65
2021/06/12 04:38:44;;;;;;;;;;;24.70;43.20;;;;;;1622331;72;773;-65
2021/06/12 04:40:46;;;;;;;;;;;24.80;43.20;;;;;;1622448;72;1932;-65
2021/06/12 04:42:48;;;;;;;;;;;24.70;43.10;;;;;;1625996;72;770;-65
2021/06/12 04:44:50;;;;;;;;;;;24.80;43.30;;;;;;1625702;72;871;-65
2021/06/12 04:46:52;;;;;;;;;;;24.80;43.40;;;;;;1594431;71;219129;-60
2021/06/12 04:48:53;;;;;;;;;;;24.80;43.40;;;;;;1551465;75;755;-60
2021/06/12 04:50:55;;;;;;;;;;;24.80;43.40;;;;;;1559769;75;1152;-60
2021/06/12 04:52:57;;;;;;;;;;;24.80;43.50;;;;;;1575898;74;741;-59
2021/06/12 04:54:59;;;;;;;;;;;24.80;43.40;;;;;;1568596;74;768;-60
2021/06/12 04:57:01;;;;;;;;;;;24.80;43.90;;;;;;1626667;71;740;-59
2021/06/12 04:59:03;;;;;;;;;;;24.80;44.10;;;;;;1630782;71;823;-60
2021/06/12 05:01:05;;;;;;;;;;;24.80;44.20;;;;;;1625121;71;1932;-60
2021/06/12 05:03:07;;;;;;;;;;;24.80;44.20;;;;;;1629947;71;763;-60
2021/06/12 05:05:09;;;;;;;;;;;24.80;44.10;;;;;;1626172;71;749;-60
2021/06/12 05:07:11;;;;;;;;;;;24.80;44.20;;;;;;1627431;72;868;-58
2021/06/12 05:09:13;;;;;;;;;;;24.80;44.40;;;;;;1628466;71;792;-60
2021/06/12 05:11:15;;;;;;;;;;;24.80;44.30;;;;;;1631057;71;1129;-59
2021/06/12 05:13:16;;;;;;;;;;;24.80;44.20;;;;;;1625106;71;796;-61
2021/06/12 05:15:20;;;;;;;;;;;24.80;44.50;;;;;;1631337;71;758;-58
2021/06/12 05:17:22;;;;;;;;;;;24.80;44.60;;;;;;1631735;71;754;-58
2021/06/12 05:19:24;;;;;;;;;;;24.80;44.40;;;;;;1631123;71;742;-60
2021/06/12 05:21:26;;;;;;;;;;;24.80;44.60;;;;;;1622265;71;1931;-59
2021/06/12 05:23:29;;;;;;;;;;;24.80;44.60;;;;;;1620929;71;692;-60
2021/06/12 05:25:32;;;;;;;;;;;24.80;44.50;;;;;;1622713;73;727;-60
2021/06/12 05:27:33;;;;;;;;;;;24.80;44.40;;;;;;1628672;71;717;-59
2021/06/12 05:29:35;;;;;;;;;;;24.90;44.50;;;;;;1628410;71;751;-60
2021/06/12 05:31:37;;;;;;;;;;;24.80;44.30;;;;;;1619156;71;1121;-58
2021/06/12 05:33:39;;;;;;;;;;;24.80;44.60;;;;;;1628436;71;643;-60
2021/06/12 05:35:41;;;;;;;;;;;25.00;44.70;;;;;;1627862;71;781;-60
2021/06/12 05:37:43;;;;;;;;;;;24.80;44.20;;;;;;1629952;71;784;-59
2021/06/12 05:39:45;;;;;;;;;;;24.90;44.40;;;;;;1628593;71;852;-59
2021/06/12 05:41:47;;;;;;;;;;;24.80;44.40;;;;;;1591497;73;1938;-59
2021/06/12 05:43:48;;;;;;;;;;;24.90;44.40;;;;;;1632175;71;835;-59
2021/06/12 05:45:50;;;;;;;;;;;24.90;44.30;;;;;;1631729;71;722;-57
2021/06/12 05:47:52;;;;;;;;;;;24.90;44.10;;;;;;1627865;71;859;-57
2021/06/12 05:49:54;;;;;;;;;;;24.90;44.40;;;;;;1629682;71;763;-58
2021/06/12 05:51:56;;;;;;;;;;;24.80;44.50;;;;;;1629287;71;1120;-59
2021/06/12 05:53:58;;;;;;;;;;;24.90;44.40;;;;;;1633843;71;930;-58
2021/06/12 05:56:00;;;;;;;;;;;24.90;44.70;;;;;;1628018;71;736;-59
2021/06/12 05:58:02;;;;;;;;;;;24.90;44.50;;;;;;1629474;71;779;-59
2021/06/12 06:00:04;;;;;;;;;;;24.90;44.40;;;;;;1627774;71;769;-57
2021/06/12 06:02:06;;;;;;;;;;;24.90;44.60;;;;;;1630491;71;1931;-60
2021/06/12 06:04:08;;;;;;;;;;;24.90;44.50;;;;;;1629279;71;829;-59
2021/06/12 06:06:10;;;;;;;;;;;24.90;44.80;;;;;;1631310;71;757;-60
2021/06/12 06:08:12;;;;;;;;;;;24.90;44.70;;;;;;1627984;71;800;-59
2021/06/12 06:10:14;;;;;;;;;;;24.80;44.60;;;;;;1629082;71;742;-58
2021/06/12 06:12:16;;;;;;;;;;;25.00;44.90;;;;;;1634079;71;1110;-58
2021/06/12 06:14:18;;;;;;;;;;;25.00;44.50;;;;;;1629193;71;817;-58
2021/06/12 06:16:20;;;;;;;;;;;25.00;44.80;;;;;;1630018;71;811;-58
2021/06/12 06:18:22;;;;;;;;;;;25.00;44.90;;;;;;1630919;71;778;-59
2021/06/12 06:20:24;;;;;;;;;;;24.90;45.00;;;;;;1632262;71;712;-60
2021/06/12 06:22:26;;;;;;;;;;;25.00;45.30;;;;;;1633992;71;1942;-58
2021/06/12 06:24:28;;;;;;;;;;;24.90;45.10;;;;;;1631558;71;706;-58
2021/06/12 06:26:29;;;;;;;;;;;25.00;45.20;;;;;;1631863;71;731;-60
2021/06/12 06:28:31;;;;;;;;;;;24.90;45.10;;;;;;1630204;71;764;-60
2021/06/12 06:30:33;;;;;;;;;;;25.00;45.20;;;;;;1626410;71;1120;-59
2021/06/12 06:32:35;;;;;;;;;;;25.00;45.00;;;;;;1631490;71;811;-59
2021/06/12 06:34:37;;;;;;;;;;;25.00;44.90;;;;;;1626350;71;785;-59
2021/06/12 06:36:39;;;;;;;;;;;25.00;44.60;;;;;;1631769;71;746;-59
2021/06/12 06:38:41;;;;;;;;;;;25.00;44.70;;;;;;1628546;71;733;-59
2021/06/12 06:40:43;;;;;;;;;;;25.00;44.70;;;;;;1635633;71;1177;-61
2021/06/12 06:42:45;;;;;;;;;;;25.00;44.70;;;;;;1632980;71;1893;-59
2021/06/12 06:44:47;;;;;;;;;;;25.00;44.80;;;;;;1631731;71;573;-60
2021/06/12 06:46:49;;;;;;;;;;;25.00;44.80;;;;;;1630505;71;788;-59
2021/06/12 06:48:50;;;;;;;;;;;24.90;45.00;;;;;;1630737;71;772;-59
2021/06/12 06:50:52;;;;;;;;;;;25.00;44.90;;;;;;1630965;71;1179;-59
2021/06/12 06:52:54;;;;;;;;;;;25.00;44.80;;;;;;1631415;71;722;-59
2021/06/12 06:54:56;;;;;;;;;;;25.00;44.80;;;;;;1634773;71;763;-59
2021/06/12 06:56:58;;;;;;;;;;;25.00;44.60;;;;;;1620805;71;715;-60
2021/06/12 06:59:00;;;;;;;;;;;25.00;44.60;;;;;;1632890;71;705;-60
2021/06/12 07:01:02;;;;;;;;;;;25.00;44.60;;;;;;1630772;71;1136;-59
2021/06/12 07:03:04;;;;;;;;;;;25.10;44.80;;;;;;1632016;72;1947;-58
2021/06/12 07:05:06;;;;;;;;;;;25.00;44.70;;;;;;1631398;71;822;-59
2021/06/12 07:07:08;;;;;;;;;;;25.10;44.60;;;;;;1633792;71;768;-58
2021/06/12 07:09:10;;;;;;;;;;;25.10;44.70;;;;;;1632882;71;741;-59
2021/06/12 07:11:12;;;;;;;;;;;25.00;44.70;;;;;;1631874;71;1132;-59
2021/06/12 07:13:15;;;;;;;;;;;25.00;44.60;;;;;;1627997;71;729;-60
2021/06/12 07:15:18;;;;;;;;;;;25.10;44.70;;;;;;1626073;71;1928;-59
2021/06/12 07:17:20;;;;;;;;;;;25.00;44.90;;;;;;1628615;71;773;-60
2021/06/12 07:19:22;;;;;;;;;;;25.00;44.90;;;;;;1631993;71;741;-59
2021/06/12 07:21:24;;;;;;;;;;;25.00;44.90;;;;;;1634228;71;1937;-61
2021/06/12 07:23:26;;;;;;;;;;;25.10;44.90;;;;;;1630985;71;772;-59
2021/06/12 07:25:27;;;;;;;;;;;25.00;44.90;;;;;;1629473;71;678;-58
2021/06/12 07:27:29;;;;;;;;;;;25.10;44.80;;;;;;1632323;71;776;-59
2021/06/12 07:29:31;;;;;;;;;;;25.10;44.90;;;;;;1632858;71;748;-60
2021/06/12 07:31:33;;;;;;;;;;;25.00;45.00;;;;;;1630355;71;1124;-60
2021/06/12 07:33:35;;;;;;;;;;;25.10;45.10;;;;;;1629689;72;785;-58
2021/06/12 07:35:37;;;;;;;;;;;25.00;45.00;;;;;;1636210;71;886;-60
2021/06/12 07:37:39;;;;;;;;;;;25.10;45.10;;;;;;1627747;71;780;-58
2021/06/12 07:39:41;;;;;;;;;;;25.00;45.10;;;;;;1630879;71;770;-59
2021/06/12 07:41:42;;;;;;;;;;;25.00;45.20;;;;;;1633419;71;1952;-60
2021/06/12 07:43:44;;;;;;;;;;;25.10;45.00;;;;;;1633355;71;756;-60
2021/06/12 07:45:47;;;;;;;;;;;25.10;45.20;;;;;;1628821;71;712;-59
2021/06/12 07:47:49;;;;;;;;;;;25.00;45.00;;;;;;1630947;71;797;-60
2021/06/12 07:49:50;;;;;;;;;;;25.00;45.00;;;;;;1632325;71;795;-60
2021/06/12 07:51:52;;;;;;;;;;;25.00;45.00;;;;;;1629808;71;1216;-58
2021/06/12 07:53:54;;;;;;;;;;;25.00;44.80;;;;;;1631921;71;769;-60
2021/06/12 07:55:56;;;;;;;;;;;25.10;44.80;;;;;;1630917;71;788;-60
2021/06/12 07:57:58;;;;;;;;;;;25.00;45.00;;;;;;1626715;71;723;-58
2021/06/12 08:00:00;;;;;;;;;;;25.00;44.90;;;;;;1631234;71;801;-60
2021/06/12 08:02:02;;;;;;;;;;;25.10;44.80;;;;;;1631349;71;1917;-60
2021/06/12 08:04:04;;;;;;;;;;;25.10;45.00;;;;;;1631245;71;788;-60
2021/06/12 08:06:06;;;;;;;;;;;25.00;45.40;;;;;;1629886;71;781;-60
2021/06/12 08:08:08;;;;;;;;;;;25.10;44.90;;;;;;1633439;71;649;-60
2021/06/12 08:10:10;;;;;;;;;;;25.10;44.50;;;;;;1631386;71;676;-60
2021/06/12 08:12:13;;;;;;;;;;;25.10;44.20;;;;;;1627308;71;1074;-59
2021/06/12 08:14:15;;;;;;;;;;;25.10;44.30;;;;;;1631879;71;631;-58
2021/06/12 08:16:16;;;;;;;;;;;25.20;43.50;;;;;;1632208;71;810;-58
2021/06/12 08:18:18;;;;;;;;;;;25.30;43.70;;;;;;1626003;71;767;-60
2021/06/12 08:20:21;;;;;;;;;;;25.30;43.90;;;;;;1628575;71;781;-58
2021/06/12 08:22:23;;;;;;;;;;;25.10;44.00;;;;;;1629729;71;1944;-60
2021/06/12 08:24:24;;;;;;;;;;;25.20;43.90;;;;;;1631196;71;788;-60
2021/06/12 08:26:26;;;;;;;;;;;25.20;44.00;;;;;;1631349;71;694;-60
2021/06/12 08:28:28;;;;;;;;;;;25.20;43.70;;;;;;1631138;71;785;-58
2021/06/12 08:30:34;;;;;;;;;;;25.10;44.00;;;;;;1628213;71;1171;-60
2021/06/12 08:32:34;;;;;;;;;;;25.20;43.90;;;;;;1630322;71;1656;-60
2021/06/12 08:34:36;;;;;;;;;;;25.20;43.80;;;;;;1633952;71;821;-60
2021/06/12 08:36:38;;;;;;;;;;;25.30;43.80;;;;;;1631097;71;888;-60
2021/06/12 08:38:40;;;;;;;;;;;25.20;43.90;;;;;;1626790;71;791;-60
2021/06/12 08:40:42;;;;;;;;;;;25.30;43.60;;;;;;1628737;71;1234;-60
2021/06/12 08:42:45;;;;;;;;;;;25.30;43.50;;;;;;1629727;71;1936;-60
2021/06/12 08:44:47;;;;;;;;;;;25.30;44.00;;;;;;1628536;71;1968;-60
2021/06/12 08:46:49;;;;;;;;;;;25.20;44.00;;;;;;1627744;71;747;-59
2021/06/12 08:48:51;;;;;;;;;;;25.30;43.90;;;;;;1630980;71;985;-60
2021/06/12 08:50:53;;;;;;;;;;;25.30;43.60;;;;;;1635174;71;1124;-59
2021/06/12 08:52:55;;;;;;;;;;;25.30;43.40;;;;;;1631410;71;681;-58
2021/06/12 08:54:57;;;;;;;;;;;25.30;43.30;;;;;;1626239;71;761;-59
2021/06/12 08:56:59;;;;;;;;;;;25.20;43.50;;;;;;1631137;71;724;-60
2021/06/12 08:59:01;;;;;;;;;;;25.20;43.50;;;;;;1626600;71;566;-60
2021/06/12 09:01:03;;;;;;;;;;;25.30;43.50;;;;;;1633930;71;1147;-59
2021/06/12 09:03:12;;;;;;;;;;;25.20;43.60;;;;;;1627232;71;1911;-60
2021/06/12 09:05:14;;;;;;;;;;;25.20;43.70;;;;;;1631016;71;818;-60
2021/06/12 09:07:19;;;;;;;;;;;25.20;43.40;;;;;;1623507;71;747;-59
2021/06/12 09:09:23;;;;;;;;;;;25.20;42.70;;;;;;1625851;71;789;-58
2021/06/12 09:11:25;;;;;;;;;;;25.20;42.80;;;;;;1623320;71;1899;-58
2021/06/12 09:13:41;;;;;;;;;;;25.20;43.10;;;;;;1622719;71;709;-60
2021/06/12 09:15:45;;;;;;;;;;;25.20;43.10;;;;;;1627337;71;1870;-59
2021/06/12 09:17:49;;;;;;;;;;;25.20;42.90;;;;;;1626734;71;1948;-60
2021/06/12 09:19:51;;;;;;;;;;;25.20;42.60;;;;;;1617166;71;1007;-60
2021/06/12 09:21:59;;;;;;;;;;;25.30;42.90;;;;;;1623255;71;1131;-58
2021/06/12 09:24:01;;;;;;;;;;;25.20;43.80;;;;;;1625316;71;804;-59
2021/06/12 09:26:03;;;;;;;;;;;25.20;43.90;;;;;;1629334;71;686;-59
2021/06/12 09:28:05;;;;;;;;;;;25.30;43.90;;;;;;1610272;71;802;-60
2021/06/12 09:30:07;;;;;;;;;;;25.30;43.60;;;;;;1626015;71;671;-59
2021/06/12 09:32:10;;;;;;;;;;;25.30;43.70;;;;;;1618445;71;1083;-58
2021/06/12 09:34:13;;;;;;;;;;;25.40;43.30;;;;;;1625654;71;664;-59
2021/06/12 09:36:15;;;;;;;;;;;25.50;43.10;;;;;;1634836;71;745;-59
2021/06/12 09:38:27;;;;;;;;;;;25.60;43.10;;;;;;1624539;71;726;-59
2021/06/12 09:40:32;;;;;;;;;;;25.60;42.80;;;;;;1617394;71;1135;-59
2021/06/12 09:42:47;;;;;;;;;;;25.60;42.80;;;;;;1628807;71;1929;-60
2021/06/12 09:44:49;;;;;;;;;;;25.60;42.80;;;;;;1621363;71;660;-59
2021/06/12 09:46:51;;;;;;;;;;;25.60;42.80;;;;;;1595702;73;786;-59
2021/06/12 09:48:56;;;;;;;;;;;25.70;42.80;;;;;;1584942;73;771;-59
2021/06/12 09:51:11;;;;;;;;;;;25.60;42.80;;;;;;1581168;73;1087;-59
2021/06/12 09:53:14;;;;;;;;;;;25.70;42.70;;;;;;1596489;73;1575;-59
2021/06/12 09:55:23;;;;;;;;;;;25.60;42.60;;;;;;1590736;73;719;-59
2021/06/12 09:57:25;;;;;;;;;;;25.60;42.70;;;;;;1594098;73;710;-59
2021/06/12 09:59:27;;;;;;;;;;;25.70;42.70;;;;;;1550421;75;728;-59
2021/06/12 10:01:32;;;;;;;;;;;25.60;42.70;;;;;;1562725;74;1176;-59
2021/06/12 10:03:34;;;;;;;;;;;25.60;42.80;;;;;;1584292;73;1930;-59
2021/06/12 10:05:36;;;;;;;;;;;25.70;42.70;;;;;;1622330;71;719;-59
2021/06/12 10:07:38;;;;;;;;;;;25.70;42.60;;;;;;1620193;71;751;-59
2021/06/12 10:09:39;;;;;;;;;;;25.60;42.70;;;;;;1625347;71;766;-59
2021/06/12 10:11:41;;;;;;;;;;;25.70;42.70;;;;;;1637821;71;1137;-59
2021/06/12 10:13:44;;;;;;;;;;;25.70;42.70;;;;;;1634384;71;667;-59
2021/06/12 10:15:49;;;;;;;;;;;25.70;42.70;;;;;;1628131;71;718;-59
2021/06/12 10:17:51;;;;;;;;;;;25.70;42.80;;;;;;1613646;71;758;-59
2021/06/12 10:19:53;;;;;;;;;;;25.60;42.80;;;;;;1626004;71;766;-59
2021/06/12 10:21:55;;;;;;;;;;;25.60;42.80;;;;;;1619988;71;1131;-59
2021/06/12 10:23:57;;;;;;;;;;;25.60;42.70;;;;;;1629672;71;1940;-59
2021/06/12 10:25:59;;;;;;;;;;;25.60;42.80;;;;;;1627427;71;732;-59
2021/06/12 10:28:01;;;;;;;;;;;25.60;42.80;;;;;;1620103;71;675;-59
2021/06/12 10:30:02;;;;;;;;;;;25.70;42.80;;;;;;1632492;71;836;-59
2021/06/12 10:32:05;;;;;;;;;;;25.60;42.80;;;;;;1613996;71;1107;-59
2021/06/12 10:34:07;;;;;;;;;;;25.60;42.80;;;;;;1639251;71;735;-59
2021/06/12 10:36:12;;;;;;;;;;;25.60;42.80;;;;;;1631834;71;779;-58
2021/06/12 10:38:15;;;;;;;;;;;25.50;42.60;;;;;;1629851;71;827;-60
2021/06/12 10:40:17;;;;;;;;;;;25.40;42.60;;;;;;1630604;71;827;-59
2021/06/12 10:42:20;;;;;;;;;;;25.30;42.30;;;;;;1601371;73;1108;-58
2021/06/12 10:44:24;;;;;;;;;;;25.30;42.40;;;;;;1624021;71;1897;-60
2021/06/12 10:46:26;;;;;;;;;;;25.20;43.10;;;;;;1631406;71;1982;-60
2021/06/12 10:48:38;;;;;;;;;;;25.20;43.10;;;;;;1544962;73;219072;-66
2021/06/12 10:50:44;;;;;;;;;;;25.10;43.00;;;;;;1530200;76;715;-65
2021/06/12 10:52:45;;;;;;;;;;;25.10;43.20;;;;;;1504866;77;635;-66
2021/06/12 10:54:47;;;;;;;;;;;25.10;43.20;;;;;;1573904;74;769;-64
2021/06/12 10:56:54;;;;;;;;;;;25.10;43.10;;;;;;1562330;73;1209;-65
2021/06/12 10:58:55;;;;;;;;;;;25.00;42.80;;;;;;1586755;73;764;-66
2021/06/12 11:01:08;;;;;;;;;;;25.00;43.20;;;;;;1595294;73;783;-65
2021/06/12 11:03:10;;;;;;;;;;;25.10;43.40;;;;;;1578739;73;1930;-66
2021/06/12 11:05:14;;;;;;;;;;;25.00;43.50;;;;;;1593533;73;743;-66
2021/06/12 11:07:24;;;;;;;;;;;25.00;43.60;;;;;;1587001;73;1942;-65
2021/06/12 11:09:22;;;;;;;;;;;25.00;43.90;;;;;;1591445;73;1556;-66
2021/06/12 11:11:33;;;;;;;;;;;25.00;44.00;;;;;;1590283;73;803;-65
2021/06/12 11:13:35;;;;;;;;;;;25.00;43.90;;;;;;1586119;73;784;-69
2021/06/12 11:15:38;;;;;;;;;;;25.00;44.00;;;;;;1584720;73;748;-65
2021/06/12 11:17:40;;;;;;;;;;;25.00;44.10;;;;;;1582527;73;1123;-66
2021/06/12 11:19:46;;;;;;;;;;;25.00;44.20;;;;;;1588179;73;632;-65
2021/06/12 11:22:06;;;;;;;;;;;25.00;44.00;;;;;;1598631;73;762;-65
2021/06/12 11:24:08;;;;;;;;;;;25.00;44.00;;;;;;1589916;73;1919;-65
2021/06/12 11:26:11;;;;;;;;;;;25.00;44.00;;;;;;1584612;73;797;-69
2021/06/12 11:28:18;;;;;;;;;;;25.00;43.60;;;;;;1591228;73;1108;-65
2021/06/12 11:30:21;;;;;;;;;;;25.00;43.80;;;;;;1591637;73;735;-66
2021/06/12 11:32:29;;;;;;;;;;;25.00;43.80;;;;;;1608603;73;747;-65
2021/06/12 11:34:33;;;;;;;;;;;25.00;43.80;;;;;;1596148;73;718;-63
2021/06/12 11:36:35;;;;;;;;;;;25.00;43.70;;;;;;1593221;73;1573;-66
2021/06/12 11:38:37;;;;;;;;;;;24.90;43.70;;;;;;1597738;73;1087;-68
2021/06/12 11:40:39;;;;;;;;;;;24.90;43.70;;;;;;1591873;73;782;-67
2021/06/12 11:42:47;;;;;;;;;;;25.00;43.70;;;;;;1593576;73;857;-67
2021/06/12 11:44:49;;;;;;;;;;;25.00;43.70;;;;;;1594417;73;721;-66
2021/06/12 11:46:51;;;;;;;;;;;25.00;43.80;;;;;;1590990;73;1142;-68
2021/06/12 11:48:53;;;;;;;;;;;25.00;43.80;;;;;;1592649;73;801;-65
2021/06/12 11:50:57;;;;;;;;;;;25.00;43.70;;;;;;1580781;73;745;-68
2021/06/12 11:52:59;;;;;;;;;;;25.00;43.50;;;;;;1593250;73;1689;-65
2021/06/12 11:55:02;;;;;;;;;;;24.90;43.10;;;;;;1592391;73;888;-66
2021/06/12 11:57:06;;;;;;;;;;;24.90;43.20;;;;;;1586041;73;1863;-66
2021/06/12 11:59:08;;;;;;;;;;;24.90;43.40;;;;;;1590647;73;706;-66
2021/06/12 12:01:10;;;;;;;;;;;24.90;43.30;;;;;;1585329;73;690;-66
2021/06/12 12:03:12;;;;;;;;;;;25.00;43.10;;;;;;1593126;73;1928;-66
2021/06/12 12:05:14;;;;;;;;;;;24.90;42.60;;;;;;1588507;73;783;-66
2021/06/12 12:07:16;;;;;;;;;;;24.80;42.70;;;;;;1602643;73;1166;-68
2021/06/12 12:09:29;;;;;;;;;;;24.80;42.70;;;;;;1593667;73;790;-65
2021/06/12 12:11:31;;;;;;;;;;;24.80;42.60;;;;;;1579903;73;749;-69